Kezdőlap
METAR-TAF:

METAR-TAF

Repülőterek :

Barrow, Alaszka, Amerikai Egyesült Államok

földrajzi szélesség: 71-17-07N, földrajzi hosszúság: 156-45-57W, magasság: 13 m

Jelenlegi meteorológiai megfigyelések

A jelentés 1 órával és 5 perccel ezelõtt készült, 20:53 UTC
Kelet-északkeleti szél 18 kt
Hőmérséklet -21°C
Páratartalom 77%
Légköri nyomás 1011 hPa
Látótávolság: 11.3 km
Derült ég

METAR: PABR 202053Z 06018KT 7SM CLR M21/M24 A2985 RMK PK WND 06028/1959

Idő: 12:58 (21:58 UTC)

Előrejelzés

A jelentés 2 órával és 13 perccel ezelõtt készült, 19:45 UTC
Az előrejelzés 20-én 20 óra UTC és 21-én 18 óra UTC között érvényes
Kelet-északkeleti szél 22 kt
Látótávolság: 0.8 km
Borult 400 lábon
hófúvás
21-én 0400 órától UTC szerint
Kelet-északkeleti szél 28 kt széllökések: 37 kt
Látótávolság: 0.4 km
Borult 300 lábon
hófúvás,

TAF: PABR 201945Z 2020/2118 06022KT 1/2SM BLSN OVC004 FM210400 06028G37KT 1/4SM BLSN OVC003

Meteorológiai megfigyelések és előrejelzések több, mint 4000 repülőtéren (METAR és TAF jelentéseket).

A térképen piros és sárga pontok jelzik az elérhető meteorológiai állomásokat.

Mozgassa az egeret a pont fölött, hogy megjelenjen az állomás neve.

Azután kattintson az időjárási megfigyelések és előrejelzések megtekintéséhez.

A térkép megváltoztatása: kattintson a fekete keresztel jelölt zöld gombra ráközelítéshez, a vonallal jelölt zöld gombra távolításhoz, vagy a zöld nyilakra a szomszédos térképek eléréséhez.


METAR-TAF: